sensor_id;sensor_type;location;lat;lon;timestamp;temperature;humidity
76293;DHT22;67256;51.154;4.164;2023-03-22T00:01:47;14.00;63.70
76293;DHT22;67256;51.154;4.164;2023-03-22T00:04:12;13.90;63.70
76293;DHT22;67256;51.154;4.164;2023-03-22T00:06:38;13.90;63.80
76293;DHT22;67256;51.154;4.164;2023-03-22T00:09:04;13.90;64.00
76293;DHT22;67256;51.154;4.164;2023-03-22T00:11:30;13.90;64.20
76293;DHT22;67256;51.154;4.164;2023-03-22T00:13:56;13.90;64.30
76293;DHT22;67256;51.154;4.164;2023-03-22T00:16:23;13.90;64.50
76293;DHT22;67256;51.154;4.164;2023-03-22T00:18:49;13.90;64.80
76293;DHT22;67256;51.154;4.164;2023-03-22T00:21:16;13.90;65.00
76293;DHT22;67256;51.154;4.164;2023-03-22T00:23:43;13.90;65.30
76293;DHT22;67256;51.154;4.164;2023-03-22T00:26:09;13.90;65.40
76293;DHT22;67256;51.154;4.164;2023-03-22T00:28:36;13.90;65.80
76293;DHT22;67256;51.154;4.164;2023-03-22T00:31:02;13.90;66.20
76293;DHT22;67256;51.154;4.164;2023-03-22T00:33:29;13.80;66.50
76293;DHT22;67256;51.154;4.164;2023-03-22T00:36:03;13.80;66.80
76293;DHT22;67256;51.154;4.164;2023-03-22T00:38:30;13.80;67.30
76293;DHT22;67256;51.154;4.164;2023-03-22T00:43:36;13.70;68.50
76293;DHT22;67256;51.154;4.164;2023-03-22T00:46:01;13.70;68.80
76293;DHT22;67256;51.154;4.164;2023-03-22T00:48:28;13.70;68.80
76293;DHT22;67256;51.154;4.164;2023-03-22T00:50:53;13.80;68.70
76293;DHT22;67256;51.154;4.164;2023-03-22T00:53:19;13.80;68.70
76293;DHT22;67256;51.154;4.164;2023-03-22T00:55:45;13.80;68.80
76293;DHT22;67256;51.154;4.164;2023-03-22T00:58:11;13.80;69.00
76293;DHT22;67256;51.154;4.164;2023-03-22T01:00:37;13.90;69.10
76293;DHT22;67256;51.154;4.164;2023-03-22T01:03:02;13.90;69.10
76293;DHT22;67256;51.154;4.164;2023-03-22T01:05:32;13.90;69.10
76293;DHT22;67256;51.154;4.164;2023-03-22T01:08:01;13.90;69.20
76293;DHT22;67256;51.154;4.164;2023-03-22T01:10:33;13.90;69.60
76293;DHT22;67256;51.154;4.164;2023-03-22T01:12:59;13.90;69.80
76293;DHT22;67256;51.154;4.164;2023-03-22T01:15:24;13.90;69.70
76293;DHT22;67256;51.154;4.164;2023-03-22T01:17:50;14.00;70.00
76293;DHT22;67256;51.154;4.164;2023-03-22T01:20:16;14.00;70.00
76293;DHT22;67256;51.154;4.164;2023-03-22T01:22:42;14.00;70.00
76293;DHT22;67256;51.154;4.164;2023-03-22T01:25:08;14.00;70.10
76293;DHT22;67256;51.154;4.164;2023-03-22T01:27:35;14.00;70.10
76293;DHT22;67256;51.154;4.164;2023-03-22T01:30:01;14.00;70.10
76293;DHT22;67256;51.154;4.164;2023-03-22T01:32:27;13.90;70.40
76293;DHT22;67256;51.154;4.164;2023-03-22T01:34:53;13.90;70.40
76293;DHT22;67256;51.154;4.164;2023-03-22T01:37:19;13.90;70.50
76293;DHT22;67256;51.154;4.164;2023-03-22T01:39:47;13.90;70.60
76293;DHT22;67256;51.154;4.164;2023-03-22T01:42:13;13.90;70.40
76293;DHT22;67256;51.154;4.164;2023-03-22T01:44:43;13.90;70.40
76293;DHT22;67256;51.154;4.164;2023-03-22T01:47:10;13.90;70.10
76293;DHT22;67256;51.154;4.164;2023-03-22T01:49:36;14.00;69.90
76293;DHT22;67256;51.154;4.164;2023-03-22T01:52:06;14.00;69.80
76293;DHT22;67256;51.154;4.164;2023-03-22T01:54:40;14.00;70.00
76293;DHT22;67256;51.154;4.164;2023-03-22T01:57:08;14.00;70.00
76293;DHT22;67256;51.154;4.164;2023-03-22T01:59:34;14.00;69.90
76293;DHT22;67256;51.154;4.164;2023-03-22T02:02:01;13.90;70.10
76293;DHT22;67256;51.154;4.164;2023-03-22T02:04:33;14.00;69.80
76293;DHT22;67256;51.154;4.164;2023-03-22T02:07:06;14.00;69.80
76293;DHT22;67256;51.154;4.164;2023-03-22T02:09:37;13.90;70.00
76293;DHT22;67256;51.154;4.164;2023-03-22T02:12:13;13.90;69.80
76293;DHT22;67256;51.154;4.164;2023-03-22T02:15:07;13.80;70.10
76293;DHT22;67256;51.154;4.164;2023-03-22T02:29:38;13.60;71.00
76293;DHT22;67256;51.154;4.164;2023-03-22T02:43:33;13.60;70.40
76293;DHT22;67256;51.154;4.164;2023-03-22T02:46:11;13.60;70.60
76293;DHT22;67256;51.154;4.164;2023-03-22T02:48:49;13.40;71.10
76293;DHT22;67256;51.154;4.164;2023-03-22T02:51:22;13.40;71.00
76293;DHT22;67256;51.154;4.164;2023-03-22T02:53:53;13.50;70.70
76293;DHT22;67256;51.154;4.164;2023-03-22T02:56:29;13.60;70.20
76293;DHT22;67256;51.154;4.164;2023-03-22T02:59:02;13.60;70.00
76293;DHT22;67256;51.154;4.164;2023-03-22T03:01:34;13.70;69.60
76293;DHT22;67256;51.154;4.164;2023-03-22T03:04:03;13.50;70.50
76293;DHT22;67256;51.154;4.164;2023-03-22T03:06:33;13.50;70.50
76293;DHT22;67256;51.154;4.164;2023-03-22T03:09:03;13.50;70.10
76293;DHT22;67256;51.154;4.164;2023-03-22T03:11:30;13.40;70.50
76293;DHT22;67256;51.154;4.164;2023-03-22T03:13:56;13.50;70.30
76293;DHT22;67256;51.154;4.164;2023-03-22T03:16:28;13.50;70.40
76293;DHT22;67256;51.154;4.164;2023-03-22T03:19:38;13.50;70.10
76293;DHT22;67256;51.154;4.164;2023-03-22T03:21:53;13.40;70.20
76293;DHT22;67256;51.154;4.164;2023-03-22T03:24:28;13.50;69.80
76293;DHT22;67256;51.154;4.164;2023-03-22T03:29:40;13.40;70.10
76293;DHT22;67256;51.154;4.164;2023-03-22T03:34:53;13.30;70.20
76293;DHT22;67256;51.154;4.164;2023-03-22T03:37:25;13.40;69.90
76293;DHT22;67256;51.154;4.164;2023-03-22T03:40:31;13.30;70.10
76293;DHT22;67256;51.154;4.164;2023-03-22T03:43:01;13.30;70.30
76293;DHT22;67256;51.154;4.164;2023-03-22T03:45:28;13.20;70.40
76293;DHT22;67256;51.154;4.164;2023-03-22T03:47:57;13.20;70.40
76293;DHT22;67256;51.154;4.164;2023-03-22T03:50:26;13.20;70.60
76293;DHT22;67256;51.154;4.164;2023-03-22T03:52:53;13.30;70.00
76293;DHT22;67256;51.154;4.164;2023-03-22T03:55:19;13.30;69.80
76293;DHT22;67256;51.154;4.164;2023-03-22T03:57:46;13.30;69.70
76293;DHT22;67256;51.154;4.164;2023-03-22T04:00:12;13.30;69.30
76293;DHT22;67256;51.154;4.164;2023-03-22T04:02:42;13.30;69.50
76293;DHT22;67256;51.154;4.164;2023-03-22T04:05:09;13.30;69.50
76293;DHT22;67256;51.154;4.164;2023-03-22T04:07:35;13.20;69.80
76293;DHT22;67256;51.154;4.164;2023-03-22T04:10:02;13.30;69.40
76293;DHT22;67256;51.154;4.164;2023-03-22T04:12:28;13.30;69.40
76293;DHT22;67256;51.154;4.164;2023-03-22T04:14:53;13.30;69.00
76293;DHT22;67256;51.154;4.164;2023-03-22T04:17:20;13.30;69.00
76293;DHT22;67256;51.154;4.164;2023-03-22T04:19:47;13.30;69.00
76293;DHT22;67256;51.154;4.164;2023-03-22T04:22:14;13.30;68.70
76293;DHT22;67256;51.154;4.164;2023-03-22T04:24:43;13.30;68.40
76293;DHT22;67256;51.154;4.164;2023-03-22T04:27:15;13.40;68.20
76293;DHT22;67256;51.154;4.164;2023-03-22T04:29:41;13.40;68.20
76293;DHT22;67256;51.154;4.164;2023-03-22T04:32:14;13.40;67.90
76293;DHT22;67256;51.154;4.164;2023-03-22T04:34:41;13.40;67.80
76293;DHT22;67256;51.154;4.164;2023-03-22T04:37:07;13.30;67.80
76293;DHT22;67256;51.154;4.164;2023-03-22T04:39:33;13.40;67.80
76293;DHT22;67256;51.154;4.164;2023-03-22T04:41:58;13.40;67.90
76293;DHT22;67256;51.154;4.164;2023-03-22T04:44:24;13.30;67.90
76293;DHT22;67256;51.154;4.164;2023-03-22T04:46:50;13.30;67.70
76293;DHT22;67256;51.154;4.164;2023-03-22T04:49:15;13.40;67.50
76293;DHT22;67256;51.154;4.164;2023-03-22T04:51:41;13.30;67.90
76293;DHT22;67256;51.154;4.164;2023-03-22T04:54:07;13.40;67.80
76293;DHT22;67256;51.154;4.164;2023-03-22T04:56:32;13.30;67.80
76293;DHT22;67256;51.154;4.164;2023-03-22T04:58:59;13.30;67.80
76293;DHT22;67256;51.154;4.164;2023-03-22T05:01:25;13.30;67.60
76293;DHT22;67256;51.154;4.164;2023-03-22T05:03:50;13.20;67.70
76293;DHT22;67256;51.154;4.164;2023-03-22T05:06:16;13.20;67.90
76293;DHT22;67256;51.154;4.164;2023-03-22T05:08:42;13.20;67.90
76293;DHT22;67256;51.154;4.164;2023-03-22T05:11:11;13.20;67.60
76293;DHT22;67256;51.154;4.164;2023-03-22T05:13:37;13.20;67.60
76293;DHT22;67256;51.154;4.164;2023-03-22T05:16:03;13.20;67.80
76293;DHT22;67256;51.154;4.164;2023-03-22T05:18:29;13.10;68.00
76293;DHT22;67256;51.154;4.164;2023-03-22T05:20:58;13.20;67.90
76293;DHT22;67256;51.154;4.164;2023-03-22T05:23:24;13.30;67.40
76293;DHT22;67256;51.154;4.164;2023-03-22T05:25:51;13.20;67.50
76293;DHT22;67256;51.154;4.164;2023-03-22T05:28:19;13.20;67.50
76293;DHT22;67256;51.154;4.164;2023-03-22T05:30:46;13.20;67.30
76293;DHT22;67256;51.154;4.164;2023-03-22T05:33:13;13.20;67.20
76293;DHT22;67256;51.154;4.164;2023-03-22T05:35:40;13.30;66.90
76293;DHT22;67256;51.154;4.164;2023-03-22T05:38:07;13.30;67.00
76293;DHT22;67256;51.154;4.164;2023-03-22T05:40:33;13.30;66.90
76293;DHT22;67256;51.154;4.164;2023-03-22T05:42:59;13.30;66.90
76293;DHT22;67256;51.154;4.164;2023-03-22T05:45:25;13.30;66.90
76293;DHT22;67256;51.154;4.164;2023-03-22T05:47:51;13.20;66.80
76293;DHT22;67256;51.154;4.164;2023-03-22T05:50:20;13.20;66.90
76293;DHT22;67256;51.154;4.164;2023-03-22T05:52:46;13.20;67.10
76293;DHT22;67256;51.154;4.164;2023-03-22T05:55:14;13.10;67.30
76293;DHT22;67256;51.154;4.164;2023-03-22T05:57:42;13.10;67.30
76293;DHT22;67256;51.154;4.164;2023-03-22T06:00:10;13.10;67.30
76293;DHT22;67256;51.154;4.164;2023-03-22T06:02:38;13.00;67.80
76293;DHT22;67256;51.154;4.164;2023-03-22T06:05:04;12.90;68.30
76293;DHT22;67256;51.154;4.164;2023-03-22T06:07:30;12.80;68.40
76293;DHT22;67256;51.154;4.164;2023-03-22T06:09:56;12.90;68.20
76293;DHT22;67256;51.154;4.164;2023-03-22T06:12:21;12.80;68.70
76293;DHT22;67256;51.154;4.164;2023-03-22T06:14:49;12.80;68.50
76293;DHT22;67256;51.154;4.164;2023-03-22T06:17:15;12.90;68.20
76293;DHT22;67256;51.154;4.164;2023-03-22T06:19:41;12.90;67.90
76293;DHT22;67256;51.154;4.164;2023-03-22T06:22:07;12.90;68.30
76293;DHT22;67256;51.154;4.164;2023-03-22T06:24:33;13.00;67.80
76293;DHT22;67256;51.154;4.164;2023-03-22T06:26:58;13.00;67.90
76293;DHT22;67256;51.154;4.164;2023-03-22T06:29:24;12.90;67.90
76293;DHT22;67256;51.154;4.164;2023-03-22T06:31:50;12.90;67.80
76293;DHT22;67256;51.154;4.164;2023-03-22T06:34:16;13.00;67.50
76293;DHT22;67256;51.154;4.164;2023-03-22T06:36:41;13.00;67.80
76293;DHT22;67256;51.154;4.164;2023-03-22T06:39:07;13.10;67.50
76293;DHT22;67256;51.154;4.164;2023-03-22T06:41:33;13.10;67.10
76293;DHT22;67256;51.154;4.164;2023-03-22T06:43:59;13.10;67.00
76293;DHT22;67256;51.154;4.164;2023-03-22T06:46:25;13.00;67.70
76293;DHT22;67256;51.154;4.164;2023-03-22T06:48:51;13.00;67.80
76293;DHT22;67256;51.154;4.164;2023-03-22T06:51:17;13.00;67.70
76293;DHT22;67256;51.154;4.164;2023-03-22T06:53:42;13.10;67.50
76293;DHT22;67256;51.154;4.164;2023-03-22T06:56:08;13.20;67.20
76293;DHT22;67256;51.154;4.164;2023-03-22T06:58:34;13.10;67.20
76293;DHT22;67256;51.154;4.164;2023-03-22T07:01:00;13.20;66.90
76293;DHT22;67256;51.154;4.164;2023-03-22T07:03:26;13.30;67.00
76293;DHT22;67256;51.154;4.164;2023-03-22T07:05:51;13.20;67.10
76293;DHT22;67256;51.154;4.164;2023-03-22T07:08:17;13.10;67.20
76293;DHT22;67256;51.154;4.164;2023-03-22T07:10:48;13.10;67.50
76293;DHT22;67256;51.154;4.164;2023-03-22T07:13:14;13.10;67.40
76293;DHT22;67256;51.154;4.164;2023-03-22T07:15:39;13.20;67.20
76293;DHT22;67256;51.154;4.164;2023-03-22T07:18:06;13.20;67.20
76293;DHT22;67256;51.154;4.164;2023-03-22T07:20:33;13.20;67.10
76293;DHT22;67256;51.154;4.164;2023-03-22T07:23:01;13.30;66.80
76293;DHT22;67256;51.154;4.164;2023-03-22T07:25:27;13.20;67.40
76293;DHT22;67256;51.154;4.164;2023-03-22T07:27:52;13.20;67.30
76293;DHT22;67256;51.154;4.164;2023-03-22T07:30:18;13.30;66.70
76293;DHT22;67256;51.154;4.164;2023-03-22T07:32:44;13.20;67.40
76293;DHT22;67256;51.154;4.164;2023-03-22T07:35:10;13.30;67.10
76293;DHT22;67256;51.154;4.164;2023-03-22T07:37:35;13.20;67.10
76293;DHT22;67256;51.154;4.164;2023-03-22T07:40:03;13.30;67.10
76293;DHT22;67256;51.154;4.164;2023-03-22T07:42:29;13.30;67.40
76293;DHT22;67256;51.154;4.164;2023-03-22T07:44:56;13.40;67.20
76293;DHT22;67256;51.154;4.164;2023-03-22T07:47:21;13.50;67.10
76293;DHT22;67256;51.154;4.164;2023-03-22T07:49:47;13.50;66.80
76293;DHT22;67256;51.154;4.164;2023-03-22T07:52:13;13.50;66.60
76293;DHT22;67256;51.154;4.164;2023-03-22T07:54:39;13.50;66.60
76293;DHT22;67256;51.154;4.164;2023-03-22T07:57:05;13.50;66.80
76293;DHT22;67256;51.154;4.164;2023-03-22T07:59:31;13.50;66.60
76293;DHT22;67256;51.154;4.164;2023-03-22T08:01:57;13.50;66.90
76293;DHT22;67256;51.154;4.164;2023-03-22T08:04:22;13.40;67.10
76293;DHT22;67256;51.154;4.164;2023-03-22T08:06:50;13.40;67.80
76293;DHT22;67256;51.154;4.164;2023-03-22T08:09:16;13.40;67.30
76293;DHT22;67256;51.154;4.164;2023-03-22T08:11:42;13.40;66.90
76293;DHT22;67256;51.154;4.164;2023-03-22T08:14:08;13.40;67.00
76293;DHT22;67256;51.154;4.164;2023-03-22T08:16:34;13.50;66.90
76293;DHT22;67256;51.154;4.164;2023-03-22T08:19:00;13.40;66.90
76293;DHT22;67256;51.154;4.164;2023-03-22T08:21:26;13.30;67.40
76293;DHT22;67256;51.154;4.164;2023-03-22T08:23:54;13.40;67.60
76293;DHT22;67256;51.154;4.164;2023-03-22T08:26:20;13.40;67.50
76293;DHT22;67256;51.154;4.164;2023-03-22T08:28:46;13.40;67.30
76293;DHT22;67256;51.154;4.164;2023-03-22T08:31:14;13.40;67.70
76293;DHT22;67256;51.154;4.164;2023-03-22T08:33:40;13.50;67.30
76293;DHT22;67256;51.154;4.164;2023-03-22T08:36:08;13.60;67.10
76293;DHT22;67256;51.154;4.164;2023-03-22T08:38:34;13.60;67.00
76293;DHT22;67256;51.154;4.164;2023-03-22T08:41:00;13.70;66.80
76293;DHT22;67256;51.154;4.164;2023-03-22T08:43:26;13.60;67.10
76293;DHT22;67256;51.154;4.164;2023-03-22T08:45:51;13.50;67.50
76293;DHT22;67256;51.154;4.164;2023-03-22T08:48:17;13.60;67.40
76293;DHT22;67256;51.154;4.164;2023-03-22T08:50:43;13.60;67.80
76293;DHT22;67256;51.154;4.164;2023-03-22T08:53:08;13.60;67.70
76293;DHT22;67256;51.154;4.164;2023-03-22T08:55:35;13.80;67.30
76293;DHT22;67256;51.154;4.164;2023-03-22T08:58:02;14.00;66.40
76293;DHT22;67256;51.154;4.164;2023-03-22T09:00:29;13.80;66.90
76293;DHT22;67256;51.154;4.164;2023-03-22T09:02:55;13.70;67.50
76293;DHT22;67256;51.154;4.164;2023-03-22T09:05:21;13.60;67.50
76293;DHT22;67256;51.154;4.164;2023-03-22T09:07:51;13.70;67.80
76293;DHT22;67256;51.154;4.164;2023-03-22T09:10:17;13.80;67.40
76293;DHT22;67256;51.154;4.164;2023-03-22T09:12:43;13.90;67.10
76293;DHT22;67256;51.154;4.164;2023-03-22T09:15:09;13.90;67.70
76293;DHT22;67256;51.154;4.164;2023-03-22T09:17:34;13.80;68.60
76293;DHT22;67256;51.154;4.164;2023-03-22T09:20:01;13.80;68.80
76293;DHT22;67256;51.154;4.164;2023-03-22T09:22:26;13.70;69.20
76293;DHT22;67256;51.154;4.164;2023-03-22T09:24:52;13.80;69.00
76293;DHT22;67256;51.154;4.164;2023-03-22T09:27:18;13.80;68.90
76293;DHT22;67256;51.154;4.164;2023-03-22T09:29:45;13.70;68.90
76293;DHT22;67256;51.154;4.164;2023-03-22T09:32:11;13.60;69.00
76293;DHT22;67256;51.154;4.164;2023-03-22T09:34:36;13.80;69.10
76293;DHT22;67256;51.154;4.164;2023-03-22T09:37:02;13.80;69.00
76293;DHT22;67256;51.154;4.164;2023-03-22T09:39:29;13.80;68.80
76293;DHT22;67256;51.154;4.164;2023-03-22T09:41:56;13.80;68.90
76293;DHT22;67256;51.154;4.164;2023-03-22T09:44:35;14.00;68.20
76293;DHT22;67256;51.154;4.164;2023-03-22T09:47:04;14.00;68.30
76293;DHT22;67256;51.154;4.164;2023-03-22T09:49:36;13.90;69.10
76293;DHT22;67256;51.154;4.164;2023-03-22T09:52:11;14.00;68.90
76293;DHT22;67256;51.154;4.164;2023-03-22T09:54:39;13.90;68.90
76293;DHT22;67256;51.154;4.164;2023-03-22T09:57:31;13.90;69.70
76293;DHT22;67256;51.154;4.164;2023-03-22T10:03:18;13.90;69.60
76293;DHT22;67256;51.154;4.164;2023-03-22T10:05:51;14.00;69.90
76293;DHT22;67256;51.154;4.164;2023-03-22T10:11:43;13.90;70.50
76293;DHT22;67256;51.154;4.164;2023-03-22T10:16:55;13.90;70.60
76293;DHT22;67256;51.154;4.164;2023-03-22T10:19:34;14.00;70.70
76293;DHT22;67256;51.154;4.164;2023-03-22T10:22:01;14.00;70.20
76293;DHT22;67256;51.154;4.164;2023-03-22T10:24:32;14.00;70.30
76293;DHT22;67256;51.154;4.164;2023-03-22T10:26:58;14.00;71.50
76293;DHT22;67256;51.154;4.164;2023-03-22T10:29:43;14.00;71.30
76293;DHT22;67256;51.154;4.164;2023-03-22T10:32:14;14.10;71.60
76293;DHT22;67256;51.154;4.164;2023-03-22T10:34:42;14.00;71.70
76293;DHT22;67256;51.154;4.164;2023-03-22T10:37:14;14.10;71.10
76293;DHT22;67256;51.154;4.164;2023-03-22T10:39:45;14.20;71.30
76293;DHT22;67256;51.154;4.164;2023-03-22T10:42:20;14.10;71.20
76293;DHT22;67256;51.154;4.164;2023-03-22T10:44:47;14.00;71.50
76293;DHT22;67256;51.154;4.164;2023-03-22T10:47:28;14.10;71.90
76293;DHT22;67256;51.154;4.164;2023-03-22T10:49:56;14.10;71.40
76293;DHT22;67256;51.154;4.164;2023-03-22T10:54:55;14.10;71.70
76293;DHT22;67256;51.154;4.164;2023-03-22T10:57:22;14.20;71.40
76293;DHT22;67256;51.154;4.164;2023-03-22T10:59:50;14.20;71.40
76293;DHT22;67256;51.154;4.164;2023-03-22T11:02:25;14.20;71.40
76293;DHT22;67256;51.154;4.164;2023-03-22T11:04:54;14.20;71.40
76293;DHT22;67256;51.154;4.164;2023-03-22T11:07:32;14.30;71.10
76293;DHT22;67256;51.154;4.164;2023-03-22T11:10:11;14.40;70.70
76293;DHT22;67256;51.154;4.164;2023-03-22T11:12:41;14.50;70.40
76293;DHT22;67256;51.154;4.164;2023-03-22T11:15:31;14.40;70.40
76293;DHT22;67256;51.154;4.164;2023-03-22T11:18:04;14.40;70.90
76293;DHT22;67256;51.154;4.164;2023-03-22T11:20:32;14.40;70.60
76293;DHT22;67256;51.154;4.164;2023-03-22T11:23:03;14.40;70.80
76293;DHT22;67256;51.154;4.164;2023-03-22T11:25:32;14.50;70.50
76293;DHT22;67256;51.154;4.164;2023-03-22T11:31:19;14.40;70.70
76293;DHT22;67256;51.154;4.164;2023-03-22T11:33:55;14.40;70.90
76293;DHT22;67256;51.154;4.164;2023-03-22T11:36:21;14.40;71.00
76293;DHT22;67256;51.154;4.164;2023-03-22T11:38:47;14.50;70.50
76293;DHT22;67256;51.154;4.164;2023-03-22T11:41:26;14.70;70.20
76293;DHT22;67256;51.154;4.164;2023-03-22T11:43:55;14.60;69.80
76293;DHT22;67256;51.154;4.164;2023-03-22T11:46:22;14.50;70.50
76293;DHT22;67256;51.154;4.164;2023-03-22T11:48:51;14.40;70.60
76293;DHT22;67256;51.154;4.164;2023-03-22T11:51:37;14.30;71.00
76293;DHT22;67256;51.154;4.164;2023-03-22T11:56:48;14.30;71.10
76293;DHT22;67256;51.154;4.164;2023-03-22T11:59:27;14.40;70.90
76293;DHT22;67256;51.154;4.164;2023-03-22T12:04:27;14.30;71.30
76293;DHT22;67256;51.154;4.164;2023-03-22T12:06:59;14.20;71.70
76293;DHT22;67256;51.154;4.164;2023-03-22T12:09:45;14.10;71.80
76293;DHT22;67256;51.154;4.164;2023-03-22T12:12:20;14.30;71.30
76293;DHT22;67256;51.154;4.164;2023-03-22T12:14:55;14.10;72.00
76293;DHT22;67256;51.154;4.164;2023-03-22T12:17:32;14.20;72.10
76293;DHT22;67256;51.154;4.164;2023-03-22T12:20:02;14.30;71.70
76293;DHT22;67256;51.154;4.164;2023-03-22T12:22:36;14.30;71.70
76293;DHT22;67256;51.154;4.164;2023-03-22T12:25:10;14.30;71.90
76293;DHT22;67256;51.154;4.164;2023-03-22T12:27:39;14.20;72.00
76293;DHT22;67256;51.154;4.164;2023-03-22T12:30:33;14.20;71.90
76293;DHT22;67256;51.154;4.164;2023-03-22T12:33:05;14.30;71.80
76293;DHT22;67256;51.154;4.164;2023-03-22T12:35:35;14.40;71.40
76293;DHT22;67256;51.154;4.164;2023-03-22T12:40:43;14.50;70.90
76293;DHT22;67256;51.154;4.164;2023-03-22T12:45:58;14.60;70.70
76293;DHT22;67256;51.154;4.164;2023-03-22T12:48:50;14.70;70.50
76293;DHT22;67256;51.154;4.164;2023-03-22T12:51:17;14.60;70.50
76293;DHT22;67256;51.154;4.164;2023-03-22T12:53:52;14.50;70.90
76293;DHT22;67256;51.154;4.164;2023-03-22T12:56:22;14.50;70.70
76293;DHT22;67256;51.154;4.164;2023-03-22T12:58:53;14.40;71.10
76293;DHT22;67256;51.154;4.164;2023-03-22T13:01:36;14.50;71.10
76293;DHT22;67256;51.154;4.164;2023-03-22T13:09:19;14.50;70.90
76293;DHT22;67256;51.154;4.164;2023-03-22T13:14:53;14.60;71.10
76293;DHT22;67256;51.154;4.164;2023-03-22T13:27:42;14.50;72.00
76293;DHT22;67256;51.154;4.164;2023-03-22T13:35:22;14.50;72.20
76293;DHT22;67256;51.154;4.164;2023-03-22T13:37:50;14.50;72.10
76293;DHT22;67256;51.154;4.164;2023-03-22T13:40:33;14.60;72.20
76293;DHT22;67256;51.154;4.164;2023-03-22T13:46:04;14.60;72.00
76293;DHT22;67256;51.154;4.164;2023-03-22T13:59:01;15.10;70.80
76293;DHT22;67256;51.154;4.164;2023-03-22T14:01:31;15.10;71.00
76293;DHT22;67256;51.154;4.164;2023-03-22T14:04:05;15.00;71.30
76293;DHT22;67256;51.154;4.164;2023-03-22T14:06:36;15.00;71.70
76293;DHT22;67256;51.154;4.164;2023-03-22T14:09:15;14.90;72.40
76293;DHT22;67256;51.154;4.164;2023-03-22T14:11:48;14.80;72.80
76293;DHT22;67256;51.154;4.164;2023-03-22T14:14:23;14.70;73.10
76293;DHT22;67256;51.154;4.164;2023-03-22T14:17:00;14.90;72.90
76293;DHT22;67256;51.154;4.164;2023-03-22T14:19:29;14.80;73.10
76293;DHT22;67256;51.154;4.164;2023-03-22T14:22:02;14.90;73.20
76293;DHT22;67256;51.154;4.164;2023-03-22T14:24:30;14.90;73.50
76293;DHT22;67256;51.154;4.164;2023-03-22T14:26:59;14.90;73.90
76293;DHT22;67256;51.154;4.164;2023-03-22T14:29:38;14.80;74.10
76293;DHT22;67256;51.154;4.164;2023-03-22T14:32:04;14.80;74.40
76293;DHT22;67256;51.154;4.164;2023-03-22T14:34:32;14.70;75.10
76293;DHT22;67256;51.154;4.164;2023-03-22T14:37:03;14.90;74.80
76293;DHT22;67256;51.154;4.164;2023-03-22T14:39:37;15.00;74.40
76293;DHT22;67256;51.154;4.164;2023-03-22T14:42:23;15.00;74.80
76293;DHT22;67256;51.154;4.164;2023-03-22T14:45:05;15.00;74.70
76293;DHT22;67256;51.154;4.164;2023-03-22T14:47:39;14.90;75.40
76293;DHT22;67256;51.154;4.164;2023-03-22T14:50:08;15.00;75.50
76293;DHT22;67256;51.154;4.164;2023-03-22T14:52:35;15.00;75.40
76293;DHT22;67256;51.154;4.164;2023-03-22T14:55:06;15.00;75.90
76293;DHT22;67256;51.154;4.164;2023-03-22T14:57:36;14.90;75.90
76293;DHT22;67256;51.154;4.164;2023-03-22T15:00:07;15.00;76.10
76293;DHT22;67256;51.154;4.164;2023-03-22T15:02:42;14.90;76.70
76293;DHT22;67256;51.154;4.164;2023-03-22T15:05:24;14.80;76.50
76293;DHT22;67256;51.154;4.164;2023-03-22T15:10:32;14.80;77.20
76293;DHT22;67256;51.154;4.164;2023-03-22T15:12:59;14.70;77.30
76293;DHT22;67256;51.154;4.164;2023-03-22T15:15:30;14.80;77.30
76293;DHT22;67256;51.154;4.164;2023-03-22T15:17:56;14.80;77.50
76293;DHT22;67256;51.154;4.164;2023-03-22T15:20:25;14.70;77.50
76293;DHT22;67256;51.154;4.164;2023-03-22T15:22:54;14.70;77.90
76293;DHT22;67256;51.154;4.164;2023-03-22T15:25:28;14.70;77.90
76293;DHT22;67256;51.154;4.164;2023-03-22T15:27:56;14.70;78.20
76293;DHT22;67256;51.154;4.164;2023-03-22T15:30:21;14.70;78.30
76293;DHT22;67256;51.154;4.164;2023-03-22T15:32:47;14.70;78.40
76293;DHT22;67256;51.154;4.164;2023-03-22T15:35:17;14.70;78.20
76293;DHT22;67256;51.154;4.164;2023-03-22T15:37:48;14.70;78.00
76293;DHT22;67256;51.154;4.164;2023-03-22T15:40:36;14.80;77.90
76293;DHT22;67256;51.154;4.164;2023-03-22T15:43:13;14.70;78.30
76293;DHT22;67256;51.154;4.164;2023-03-22T15:46:27;14.60;78.50
76293;DHT22;67256;51.154;4.164;2023-03-22T15:48:28;14.70;78.50
76293;DHT22;67256;51.154;4.164;2023-03-22T15:50:54;14.60;78.50
76293;DHT22;67256;51.154;4.164;2023-03-22T15:53:28;14.70;78.20
76293;DHT22;67256;51.154;4.164;2023-03-22T15:55:55;14.70;78.10
76293;DHT22;67256;51.154;4.164;2023-03-22T15:58:32;14.60;78.30
76293;DHT22;67256;51.154;4.164;2023-03-22T16:01:15;14.70;78.20
76293;DHT22;67256;51.154;4.164;2023-03-22T16:03:49;14.70;78.30
76293;DHT22;67256;51.154;4.164;2023-03-22T16:06:16;14.70;78.00
76293;DHT22;67256;51.154;4.164;2023-03-22T16:08:42;14.80;78.00
76293;DHT22;67256;51.154;4.164;2023-03-22T16:11:13;14.80;78.00
76293;DHT22;67256;51.154;4.164;2023-03-22T16:13:41;14.70;77.80
76293;DHT22;67256;51.154;4.164;2023-03-22T16:16:12;14.70;78.60
76293;DHT22;67256;51.154;4.164;2023-03-22T16:18:39;14.70;78.00
76293;DHT22;67256;51.154;4.164;2023-03-22T16:21:05;14.60;78.30
76293;DHT22;67256;51.154;4.164;2023-03-22T16:23:31;14.70;78.40
76293;DHT22;67256;51.154;4.164;2023-03-22T16:25:56;14.60;78.60
76293;DHT22;67256;51.154;4.164;2023-03-22T16:28:22;14.50;78.50
76293;DHT22;67256;51.154;4.164;2023-03-22T16:30:48;14.60;78.60
76293;DHT22;67256;51.154;4.164;2023-03-22T16:33:15;14.70;78.00
76293;DHT22;67256;51.154;4.164;2023-03-22T16:35:41;14.70;77.70
76293;DHT22;67256;51.154;4.164;2023-03-22T16:38:12;14.70;78.00
76293;DHT22;67256;51.154;4.164;2023-03-22T16:40:47;14.50;78.20
76293;DHT22;67256;51.154;4.164;2023-03-22T16:43:13;14.50;78.70
76293;DHT22;67256;51.154;4.164;2023-03-22T16:45:39;14.50;78.10
76293;DHT22;67256;51.154;4.164;2023-03-22T16:48:05;14.60;77.90
76293;DHT22;67256;51.154;4.164;2023-03-22T16:50:33;14.50;78.00
76293;DHT22;67256;51.154;4.164;2023-03-22T16:52:59;14.50;78.50
76293;DHT22;67256;51.154;4.164;2023-03-22T16:55:30;14.50;78.30
76293;DHT22;67256;51.154;4.164;2023-03-22T16:57:58;14.50;77.80
76293;DHT22;67256;51.154;4.164;2023-03-22T17:00:24;14.60;77.80
76293;DHT22;67256;51.154;4.164;2023-03-22T17:02:59;14.60;77.40
76293;DHT22;67256;51.154;4.164;2023-03-22T17:05:29;14.50;78.10
76293;DHT22;67256;51.154;4.164;2023-03-22T17:07:56;14.50;77.90
76293;DHT22;67256;51.154;4.164;2023-03-22T17:10:24;14.50;77.70
76293;DHT22;67256;51.154;4.164;2023-03-22T17:12:49;14.50;77.40
76293;DHT22;67256;51.154;4.164;2023-03-22T17:15:34;14.60;77.50
76293;DHT22;67256;51.154;4.164;2023-03-22T17:18:04;14.70;76.80
76293;DHT22;67256;51.154;4.164;2023-03-22T17:20:31;14.70;76.60